Time;durP1;ratioP1;P1;durP2;ratioP2;P2;SDS_P1;SDS_P2;PMS_P1;PMS_P2;Temp;Humidity;BMP_temperature;BMP_pressure;BME280_temperature;BME280_humidity;BME280_pressure;Samples;Min_cycle;Max_cycle;Signal;HPM_P1;HPM_P2
2024/03/22 00:00:17;;;;;;;;;;;;;;;9.30;nan;101685.09;5192602;22;19925;-70
2024/03/22 00:02:19;;;;;;;;;;;;;;;9.29;nan;101680.69;5192645;22;19935;-71
2024/03/22 00:04:20;;;;;;;;;;;;;;;9.26;nan;101683.69;5192874;22;19924;-72
2024/03/22 00:06:21;;;;;;;;;;;;;;;9.25;nan;101676.59;5193285;22;20232;-69
2024/03/22 00:08:25;;;;;;;;;;;;;;;9.24;nan;101675.75;5192839;22;20259;-73
2024/03/22 00:10:26;;;;;;;;;;;;;;;9.24;nan;101669.50;5192994;22;19919;-69
2024/03/22 00:12:28;;;;;;;;;;;;;;;9.21;nan;101665.25;5192307;22;19945;-70
2024/03/22 00:14:29;;;;;;;;;;;;;;;9.19;nan;101668.09;5192973;22;20323;-70
2024/03/22 00:16:34;;;;;;;;;;;;;;;9.18;nan;101665.53;5164721;23;20286;-72
2024/03/22 00:18:35;;;;;;;;;;;;;;;9.17;nan;101663.84;5166016;23;19926;-69
2024/03/22 00:20:37;;;;;;;;;;;;;;;9.15;nan;101660.44;5193378;22;20258;-72
2024/03/22 00:22:38;;;;;;;;;;;;;;;9.14;nan;101659.59;5193203;22;19965;-72
2024/03/22 00:24:42;;;;;;;;;;;;;;;9.14;nan;101653.38;5192231;22;19919;-69
2024/03/22 00:26:43;;;;;;;;;;;;;;;9.12;nan;101649.94;5192775;22;19919;-69
2024/03/22 00:28:51;;;;;;;;;;;;;;;9.10;nan;101652.78;5192733;22;19920;-70
2024/03/22 00:30:52;;;;;;;;;;;;;;;9.10;nan;101650.09;5192814;22;19919;-69
2024/03/22 00:32:57;;;;;;;;;;;;;;;9.08;nan;101644.00;5192979;22;20339;-69
2024/03/22 00:34:58;;;;;;;;;;;;;;;9.08;nan;101644.00;5193009;22;19919;-70
2024/03/22 00:37:00;;;;;;;;;;;;;;;9.06;nan;101639.75;5192851;22;19925;-70
2024/03/22 00:39:03;;;;;;;;;;;;;;;9.06;nan;101637.06;5190552;22;20361;-71
2024/03/22 00:41:07;;;;;;;;;;;;;;;9.05;nan;101632.69;5165082;23;19926;-70
2024/03/22 00:43:08;;;;;;;;;;;;;;;9.05;nan;101635.38;5192274;22;20366;-70
2024/03/22 00:45:12;;;;;;;;;;;;;;;9.05;nan;101630.81;5192265;22;19919;-73
2024/03/22 00:47:13;;;;;;;;;;;;;;;9.04;nan;101629.13;5192059;22;20373;-71
2024/03/22 00:49:16;;;;;;;;;;;;;;;9.02;nan;101626.56;5192216;22;20236;-73
2024/03/22 00:51:17;;;;;;;;;;;;;;;9.02;nan;101617.63;5164643;23;19974;-70
2024/03/22 00:53:19;;;;;;;;;;;;;;;9.01;nan;101632.97;5192437;22;19923;-70
2024/03/22 00:55:20;;;;;;;;;;;;;;;9.01;nan;101627.56;5191866;22;19925;-70
2024/03/22 00:57:24;;;;;;;;;;;;;;;9.00;nan;101628.56;5165162;23;19935;-72
2024/03/22 00:59:25;;;;;;;;;;;;;;;9.00;nan;101633.09;5192399;22;19923;-70
2024/03/22 01:01:27;;;;;;;;;;;;;;;8.99;nan;101623.31;5191050;22;20211;-73
2024/03/22 01:03:29;;;;;;;;;;;;;;;8.97;nan;101628.84;5164590;23;20248;-70
2024/03/22 01:05:31;;;;;;;;;;;;;;;8.97;nan;101626.16;5191645;22;20346;-73
2024/03/22 01:07:32;;;;;;;;;;;;;;;8.96;nan;101619.06;5191059;22;19925;-71
2024/03/22 01:09:34;;;;;;;;;;;;;;;8.96;nan;101608.28;5191043;22;19919;-72
2024/03/22 01:11:35;;;;;;;;;;;;;;;8.96;nan;101604.75;5191323;22;20246;-71
2024/03/22 01:13:39;;;;;;;;;;;;;;;8.95;nan;101608.41;5191829;22;20254;-72
2024/03/22 01:15:40;;;;;;;;;;;;;;;8.94;nan;101614.81;5165008;23;20245;-70
2024/03/22 01:17:42;;;;;;;;;;;;;;;8.93;nan;101605.03;5191694;22;19923;-71
2024/03/22 01:19:44;;;;;;;;;;;;;;;8.92;nan;101596.13;5192323;22;19919;-69
2024/03/22 01:21:46;;;;;;;;;;;;;;;8.92;nan;101595.25;5192236;22;20247;-70
2024/03/22 01:23:47;;;;;;;;;;;;;;;8.91;nan;101594.41;5192337;22;19919;-70
2024/03/22 01:25:49;;;;;;;;;;;;;;;8.91;nan;101589.00;5191812;22;19926;-73
2024/03/22 01:27:50;;;;;;;;;;;;;;;8.91;nan;101589.00;5192463;22;19919;-72
2024/03/22 01:29:54;;;;;;;;;;;;;;;8.92;nan;101590.72;5192200;22;19923;-72
2024/03/22 01:31:55;;;;;;;;;;;;;;;8.93;nan;101594.25;5192546;22;19919;-70
2024/03/22 01:33:57;;;;;;;;;;;;;;;8.93;nan;101578.09;5192563;22;19934;-71
2024/03/22 01:35:58;;;;;;;;;;;;;;;8.93;nan;101581.63;5192659;22;20236;-70
2024/03/22 01:38:01;;;;;;;;;;;;;;;8.93;nan;101584.31;5193480;22;19925;-70
2024/03/22 01:40:02;;;;;;;;;;;;;;;8.93;nan;101576.25;5194017;22;19927;-70
2024/03/22 01:42:05;;;;;;;;;;;;;;;8.93;nan;101586.19;5193770;22;19919;-71
2024/03/22 01:44:06;;;;;;;;;;;;;;;8.93;nan;101588.88;5194260;22;20236;-70
2024/03/22 01:46:09;;;;;;;;;;;;;;;8.92;nan;101579.06;5193845;22;20359;-70
2024/03/22 01:48:10;;;;;;;;;;;;;;;8.91;nan;101574.72;5193537;22;19925;-69
2024/03/22 01:50:13;;;;;;;;;;;;;;;8.91;nan;101572.84;5194054;22;19923;-70
2024/03/22 01:52:16;;;;;;;;;;;;;;;8.91;nan;101572.84;5194313;22;19919;-71
2024/03/22 01:54:18;;;;;;;;;;;;;;;8.91;nan;101567.47;5194304;22;19926;-73
2024/03/22 01:56:19;;;;;;;;;;;;;;;8.92;nan;101561.09;5193336;22;20242;-70
2024/03/22 01:58:22;;;;;;;;;;;;;;;8.94;nan;101560.94;5194509;22;19920;-70
2024/03/22 02:00:23;;;;;;;;;;;;;;;8.93;nan;101556.53;5192881;22;19919;-72
2024/03/22 02:02:27;;;;;;;;;;;;;;;8.94;nan;101558.25;5194404;22;19930;-69
2024/03/22 02:04:28;;;;;;;;;;;;;;;8.94;nan;101559.09;5193900;22;19919;-70
2024/03/22 02:06:30;;;;;;;;;;;;;;;8.95;nan;101554.53;5194295;22;20331;-69
2024/03/22 02:08:32;;;;;;;;;;;;;;;8.94;nan;101553.69;5194261;22;19930;-72
2024/03/22 02:10:34;;;;;;;;;;;;;;;8.94;nan;101545.63;5194314;22;19919;-69
2024/03/22 02:12:35;;;;;;;;;;;;;;;8.95;nan;101543.75;5194199;22;19919;-69
2024/03/22 02:14:37;;;;;;;;;;;;;;;8.92;nan;101533.28;5194094;22;20250;-70
2024/03/22 02:16:39;;;;;;;;;;;;;;;8.96;nan;101542.78;5193837;22;19923;-70
2024/03/22 02:18:44;;;;;;;;;;;;;;;8.96;nan;101548.16;5193782;22;19926;-72
2024/03/22 02:20:45;;;;;;;;;;;;;;;8.96;nan;101549.00;5193689;22;19919;-71
2024/03/22 02:22:47;;;;;;;;;;;;;;;8.97;nan;101541.78;5194125;22;20258;-72
2024/03/22 02:24:50;;;;;;;;;;;;;;;8.98;nan;101540.78;5194020;22;19930;-72
2024/03/22 02:26:51;;;;;;;;;;;;;;;8.96;nan;101540.91;5194221;22;20019;-70
2024/03/22 02:28:53;;;;;;;;;;;;;;;8.97;nan;101542.63;5193683;22;20149;-70
2024/03/22 02:30:54;;;;;;;;;;;;;;;8.97;nan;101534.53;5192024;22;20347;-70
2024/03/22 02:32:56;;;;;;;;;;;;;;;8.98;nan;101532.69;5193246;22;19930;-70
2024/03/22 02:34:58;;;;;;;;;;;;;;;8.96;nan;101532.84;5193311;22;20254;-71
2024/03/22 02:36:59;;;;;;;;;;;;;;;8.96;nan;101527.44;5193399;22;19920;-71
2024/03/22 02:39:01;;;;;;;;;;;;;;;8.95;nan;101520.38;5193810;22;20242;-71
2024/03/22 02:41:04;;;;;;;;;;;;;;;8.95;nan;101514.13;5193323;22;19927;-70
2024/03/22 02:43:06;;;;;;;;;;;;;;;8.96;nan;101507.75;5192829;22;20361;-73
2024/03/22 02:45:07;;;;;;;;;;;;;;;8.94;nan;101505.19;5193740;22;19919;-71
2024/03/22 02:47:10;;;;;;;;;;;;;;;8.94;nan;101509.75;5193951;22;19929;-70
2024/03/22 02:49:11;;;;;;;;;;;;;;;8.92;nan;101509.91;5193621;22;19927;-70
2024/03/22 02:51:13;;;;;;;;;;;;;;;8.91;nan;101500.09;5192887;22;19934;-71
2024/03/22 02:53:14;;;;;;;;;;;;;;;8.91;nan;101505.50;5193458;22;19919;-69
2024/03/22 02:55:17;;;;;;;;;;;;;;;8.91;nan;101497.41;5192671;22;19925;-69
2024/03/22 02:57:21;;;;;;;;;;;;;;;8.92;nan;101500.94;5193731;22;19929;-69
2024/03/22 02:59:26;;;;;;;;;;;;;;;8.91;nan;101502.81;5193363;22;19927;-69
2024/03/22 03:01:27;;;;;;;;;;;;;;;8.90;nan;101493.00;5193621;22;19941;-69
2024/03/22 03:03:29;;;;;;;;;;;;;;;8.91;nan;101489.34;5193607;22;19926;-70
2024/03/22 03:05:30;;;;;;;;;;;;;;;8.91;nan;101485.81;5193403;22;19919;-68
2024/03/22 03:07:32;;;;;;;;;;;;;;;8.91;nan;101478.56;5193283;22;19927;-72
2024/03/22 03:09:34;;;;;;;;;;;;;;;8.91;nan;101481.25;5193371;22;19920;-71
2024/03/22 03:11:36;;;;;;;;;;;;;;;8.92;nan;101476.69;5192617;22;20251;-69
2024/03/22 03:13:38;;;;;;;;;;;;;;;8.90;nan;101466.06;5193565;22;19919;-70
2024/03/22 03:15:40;;;;;;;;;;;;;;;8.91;nan;101464.25;5193731;22;19919;-70
2024/03/22 03:17:42;;;;;;;;;;;;;;;8.89;nan;101464.41;5193734;22;19924;-70
2024/03/22 03:19:44;;;;;;;;;;;;;;;8.90;nan;101465.22;5193482;22;19919;-70
2024/03/22 03:21:45;;;;;;;;;;;;;;;8.88;nan;101459.16;5193426;22;19926;-70
2024/03/22 03:23:48;;;;;;;;;;;;;;;8.88;nan;101465.38;5193603;22;19919;-70
2024/03/22 03:25:49;;;;;;;;;;;;;;;8.86;nan;101456.63;5190989;22;19945;-69
2024/03/22 03:27:50;;;;;;;;;;;;;;;8.86;nan;101440.44;5193289;22;19919;-73
2024/03/22 03:29:54;;;;;;;;;;;;;;;8.87;nan;101441.28;5193348;22;19929;-70
2024/03/22 03:31:55;;;;;;;;;;;;;;;8.87;nan;101441.28;5193708;22;20421;-70
2024/03/22 03:33:57;;;;;;;;;;;;;;;8.86;nan;101432.38;5193682;22;19919;-69
2024/03/22 03:35:58;;;;;;;;;;;;;;;8.86;nan;101434.22;5193791;22;19919;-69
2024/03/22 03:38:00;;;;;;;;;;;;;;;8.84;nan;101424.44;5192826;22;19919;-69
2024/03/22 03:40:02;;;;;;;;;;;;;;;8.84;nan;101418.22;5193380;22;19941;-70
2024/03/22 03:42:04;;;;;;;;;;;;;;;8.84;nan;101410.13;5193547;22;19923;-70
2024/03/22 03:44:05;;;;;;;;;;;;;;;8.83;nan;101408.41;5193385;22;19919;-69
2024/03/22 03:46:09;;;;;;;;;;;;;;;8.80;nan;101403.34;5192860;22;20365;-72
2024/03/22 03:48:10;;;;;;;;;;;;;;;8.81;nan;101400.50;5192902;22;19919;-70
2024/03/22 03:50:12;;;;;;;;;;;;;;;8.80;nan;101406.88;5192575;22;19919;-70
2024/03/22 03:52:13;;;;;;;;;;;;;;;8.79;nan;101407.88;5192315;22;19919;-70
2024/03/22 03:54:16;;;;;;;;;;;;;;;8.80;nan;101408.72;5193267;22;19926;-70
2024/03/22 03:56:17;;;;;;;;;;;;;;;8.79;nan;101402.50;5193251;22;19919;-70
2024/03/22 03:58:19;;;;;;;;;;;;;;;8.79;nan;101405.19;5192522;22;19923;-70
2024/03/22 04:00:20;;;;;;;;;;;;;;;8.79;nan;101404.31;5191294;22;19942;-69
2024/03/22 04:02:24;;;;;;;;;;;;;;;8.78;nan;101398.09;5192494;22;19924;-71
2024/03/22 04:04:25;;;;;;;;;;;;;;;8.79;nan;101394.41;5192589;22;20247;-70
2024/03/22 04:06:27;;;;;;;;;;;;;;;8.78;nan;101390.00;5192503;22;19929;-71
2024/03/22 04:08:28;;;;;;;;;;;;;;;8.78;nan;101392.69;5191757;22;19919;-71
2024/03/22 04:10:30;;;;;;;;;;;;;;;8.79;nan;101380.06;5192641;22;19946;-69
2024/03/22 04:12:32;;;;;;;;;;;;;;;8.80;nan;101381.78;5192193;22;19929;-72
2024/03/22 04:14:34;;;;;;;;;;;;;;;8.80;nan;101385.31;5192495;22;19919;-71
2024/03/22 04:16:35;;;;;;;;;;;;;;;8.80;nan;101389.88;5192212;22;20243;-71
2024/03/22 04:18:38;;;;;;;;;;;;;;;8.79;nan;101378.25;5191223;22;19919;-70
2024/03/22 04:20:40;;;;;;;;;;;;;;;8.80;nan;101379.09;5191810;22;19920;-70
2024/03/22 04:22:42;;;;;;;;;;;;;;;8.80;nan;101373.69;5192393;22;19919;-70
2024/03/22 04:24:43;;;;;;;;;;;;;;;8.79;nan;101366.59;5191763;22;19930;-70
2024/03/22 04:26:45;;;;;;;;;;;;;;;8.78;nan;101357.69;5192175;22;19919;-71
2024/03/22 04:28:46;;;;;;;;;;;;;;;8.78;nan;101352.31;5192578;22;19927;-71
2024/03/22 04:30:55;;;;;;;;;;;;;;;8.78;nan;101360.38;5192229;22;19946;-70
2024/03/22 04:32:56;;;;;;;;;;;;;;;8.79;nan;101361.22;5191872;22;19920;-70
2024/03/22 04:35:00;;;;;;;;;;;;;;;8.79;nan;101353.16;5191963;22;19923;-69
2024/03/22 04:37:02;;;;;;;;;;;;;;;8.79;nan;101354.00;5191031;22;20265;-71
2024/03/22 04:39:03;;;;;;;;;;;;;;;8.80;nan;101355.69;5191285;22;20415;-70
2024/03/22 04:41:05;;;;;;;;;;;;;;;8.80;nan;101350.28;5191514;22;19919;-71
2024/03/22 04:43:07;;;;;;;;;;;;;;;8.80;nan;101349.47;5191853;22;19923;-71
2024/03/22 04:45:09;;;;;;;;;;;;;;;8.81;nan;101351.16;5191977;22;19919;-70
2024/03/22 04:47:11;;;;;;;;;;;;;;;8.80;nan;101344.06;5190207;22;19919;-71
2024/03/22 04:49:13;;;;;;;;;;;;;;;8.80;nan;101344.91;5190729;22;19923;-69
2024/03/22 04:51:15;;;;;;;;;;;;;;;8.80;nan;101336.84;5191269;22;19919;-69
2024/03/22 04:53:17;;;;;;;;;;;;;;;8.80;nan;101336.84;5164797;23;19926;-69
2024/03/22 04:55:19;;;;;;;;;;;;;;;8.81;nan;101332.31;5191050;22;19923;-70
2024/03/22 04:57:21;;;;;;;;;;;;;;;8.81;nan;101324.22;5191951;22;20242;-69
2024/03/22 04:59:22;;;;;;;;;;;;;;;8.80;nan;101323.38;5191685;22;20340;-68
2024/03/22 05:01:25;;;;;;;;;;;;;;;8.80;nan;101317.97;5191020;22;19945;-70
2024/03/22 05:03:26;;;;;;;;;;;;;;;8.79;nan;101319.00;5190860;22;20259;-69
2024/03/22 05:05:28;;;;;;;;;;;;;;;8.79;nan;101318.13;5191712;22;20281;-69
2024/03/22 05:07:31;;;;;;;;;;;;;;;8.79;nan;101318.13;5191668;22;19925;-69
2024/03/22 05:09:33;;;;;;;;;;;;;;;8.79;nan;101319.00;5191305;22;19923;-70
2024/03/22 05:11:34;;;;;;;;;;;;;;;8.81;nan;101313.47;5191368;22;19923;-70
2024/03/22 05:13:39;;;;;;;;;;;;;;;8.80;nan;101314.44;5193332;22;19919;-70
2024/03/22 05:15:40;;;;;;;;;;;;;;;8.82;nan;101317.81;5192993;22;19945;-69
2024/03/22 05:17:43;;;;;;;;;;;;;;;8.82;nan;101312.44;5192471;22;20170;-70
2024/03/22 05:19:44;;;;;;;;;;;;;;;8.82;nan;101310.63;5193113;22;20343;-69
2024/03/22 05:21:46;;;;;;;;;;;;;;;8.82;nan;101312.44;5193070;22;20355;-69
2024/03/22 05:23:49;;;;;;;;;;;;;;;8.82;nan;101307.91;5193069;22;19919;-69
2024/03/22 05:25:51;;;;;;;;;;;;;;;8.82;nan;101298.97;5192784;22;19933;-69
2024/03/22 05:27:52;;;;;;;;;;;;;;;8.81;nan;101295.44;5192383;22;19923;-70
2024/03/22 05:29:54;;;;;;;;;;;;;;;8.84;nan;101294.31;5191949;22;19927;-69
2024/03/22 05:31:57;;;;;;;;;;;;;;;8.82;nan;101286.38;5138635;23;19924;-70
2024/03/22 05:33:59;;;;;;;;;;;;;;;8.82;nan;101288.19;5161261;23;19949;-69
2024/03/22 05:36:00;;;;;;;;;;;;;;;8.82;nan;101283.69;5192390;22;20354;-69
2024/03/22 05:38:02;;;;;;;;;;;;;;;8.83;nan;101287.22;5191152;22;20347;-69
2024/03/22 05:40:06;;;;;;;;;;;;;;;8.83;nan;101284.50;5190575;22;20254;-70
2024/03/22 05:42:08;;;;;;;;;;;;;;;8.84;nan;101286.22;5190412;22;20400;-70
2024/03/22 05:44:09;;;;;;;;;;;;;;;8.84;nan;101276.28;5191889;22;19942;-69
2024/03/22 05:46:12;;;;;;;;;;;;;;;8.84;nan;101281.66;5192562;22;19924;-70
2024/03/22 05:48:13;;;;;;;;;;;;;;;8.84;nan;101281.66;5191788;22;19934;-70
2024/03/22 05:50:16;;;;;;;;;;;;;;;8.84;nan;101278.97;5192269;22;19923;-70
2024/03/22 05:52:17;;;;;;;;;;;;;;;8.85;nan;101277.13;5191438;22;19923;-70
2024/03/22 05:54:20;;;;;;;;;;;;;;;8.84;nan;101272.75;5192935;22;19923;-69
2024/03/22 05:56:22;;;;;;;;;;;;;;;8.85;nan;101274.44;5192117;22;19919;-69
2024/03/22 05:58:24;;;;;;;;;;;;;;;8.84;nan;101267.38;5192518;22;20244;-69
2024/03/22 06:00:25;;;;;;;;;;;;;;;8.84;nan;101262.81;5192032;22;19923;-69
2024/03/22 06:02:28;;;;;;;;;;;;;;;8.85;nan;101260.97;5192579;22;19919;-69
2024/03/22 06:04:29;;;;;;;;;;;;;;;8.86;nan;101259.97;5191886;22;20366;-70
2024/03/22 06:06:31;;;;;;;;;;;;;;;8.86;nan;101254.59;5190522;22;19920;-70
2024/03/22 06:08:34;;;;;;;;;;;;;;;8.86;nan;101262.66;5190940;22;19924;-70
2024/03/22 06:10:36;;;;;;;;;;;;;;;8.88;nan;101257.13;5191004;22;19929;-70
2024/03/22 06:12:40;;;;;;;;;;;;;;;8.89;nan;101256.13;5189482;22;19923;-70
2024/03/22 06:14:41;;;;;;;;;;;;;;;8.89;nan;101251.59;5191572;22;19929;-70
2024/03/22 06:16:43;;;;;;;;;;;;;;;8.90;nan;101245.16;5192552;22;19925;-69
2024/03/22 06:18:44;;;;;;;;;;;;;;;8.91;nan;101244.19;5192395;22;20250;-69
2024/03/22 06:20:46;;;;;;;;;;;;;;;8.92;nan;101245.88;5192005;22;20259;-69
2024/03/22 06:22:47;;;;;;;;;;;;;;;8.92;nan;101245.88;5191774;22;19929;-69
2024/03/22 06:24:49;;;;;;;;;;;;;;;8.93;nan;101242.16;5191805;22;19923;-70
2024/03/22 06:26:51;;;;;;;;;;;;;;;8.94;nan;101243.88;5190691;22;20369;-71
2024/03/22 06:28:55;;;;;;;;;;;;;;;8.95;nan;101244.72;5192181;22;19931;-69
2024/03/22 06:30:56;;;;;;;;;;;;;;;8.96;nan;101244.56;5192677;22;19929;-69
2024/03/22 06:32:58;;;;;;;;;;;;;;;8.96;nan;101235.63;5191947;22;19926;-69
2024/03/22 06:34:59;;;;;;;;;;;;;;;8.96;nan;101231.09;5192039;22;19924;-69
2024/03/22 06:37:01;;;;;;;;;;;;;;;8.99;nan;101236.16;5192963;22;19919;-69
2024/03/22 06:39:06;;;;;;;;;;;;;;;9.00;nan;101228.97;5165581;23;19979;-69
2024/03/22 06:41:08;;;;;;;;;;;;;;;8.99;nan;101238.88;5190752;22;19923;-71
2024/03/22 06:43:09;;;;;;;;;;;;;;;9.01;nan;101242.28;5191404;22;19926;-69
2024/03/22 06:45:13;;;;;;;;;;;;;;;9.01;nan;101242.28;5191661;22;19920;-69
2024/03/22 06:47:14;;;;;;;;;;;;;;;9.01;nan;101228.81;5191604;22;20266;-69
2024/03/22 06:49:17;;;;;;;;;;;;;;;9.02;nan;101227.78;5191145;22;19920;-70
2024/03/22 06:51:18;;;;;;;;;;;;;;;9.03;nan;101231.34;5190709;22;20356;-70
2024/03/22 06:53:20;;;;;;;;;;;;;;;9.03;nan;101220.56;5190406;22;19919;-70
2024/03/22 06:55:22;;;;;;;;;;;;;;;9.04;nan;101229.47;5191396;22;19951;-70
2024/03/22 06:57:24;;;;;;;;;;;;;;;9.04;nan;101227.63;5191036;22;19923;-70
2024/03/22 06:59:26;;;;;;;;;;;;;;;9.05;nan;101223.09;5191356;22;20448;-70
2024/03/22 07:01:30;;;;;;;;;;;;;;;9.05;nan;101215.84;5192979;22;19923;-70
2024/03/22 07:03:31;;;;;;;;;;;;;;;9.06;nan;101219.38;5192170;22;19919;-70
2024/03/22 07:05:34;;;;;;;;;;;;;;;9.06;nan;101214.00;5191659;22;19923;-70
2024/03/22 07:07:35;;;;;;;;;;;;;;;9.08;nan;101214.72;5191629;22;19920;-70
2024/03/22 07:09:37;;;;;;;;;;;;;;;9.08;nan;101210.16;5191625;22;19933;-69
2024/03/22 07:11:38;;;;;;;;;;;;;;;9.09;nan;101216.38;5190890;22;19929;-70
2024/03/22 07:13:43;;;;;;;;;;;;;;;9.10;nan;101207.31;5191232;22;20442;-70
2024/03/22 07:20:12;;;;;;;;;;;;;;;9.11;nan;101203.63;5157788;22;19962;-70
2024/03/22 07:22:14;;;;;;;;;;;;;;;9.13;nan;101204.31;5164383;23;20357;-70
2024/03/22 07:24:17;;;;;;;;;;;;;;;9.12;nan;101206.16;5163218;23;19930;-70
2024/03/22 07:26:19;;;;;;;;;;;;;;;9.13;nan;101212.38;5165755;23;19925;-70
2024/03/22 07:28:21;;;;;;;;;;;;;;;9.14;nan;101198.75;5165006;23;19998;-70
2024/03/22 07:30:22;;;;;;;;;;;;;;;9.15;nan;101199.59;5165709;23;19920;-70
2024/03/22 07:32:24;;;;;;;;;;;;;;;9.16;nan;101199.44;5164877;23;19919;-70
2024/03/22 07:34:26;;;;;;;;;;;;;;;9.16;nan;101190.50;5166616;23;20251;-70
2024/03/22 07:36:31;;;;;;;;;;;;;;;9.18;nan;101196.59;5166798;23;19923;-70
2024/03/22 07:38:32;;;;;;;;;;;;;;;9.19;nan;101195.59;5167213;23;20258;-70
2024/03/22 07:40:34;;;;;;;;;;;;;;;9.20;nan;101194.59;5165802;23;19930;-70
2024/03/22 07:42:35;;;;;;;;;;;;;;;9.21;nan;101193.56;5164663;23;19930;-70
2024/03/22 07:44:38;;;;;;;;;;;;;;;9.24;nan;101189.72;5166028;23;19930;-70
2024/03/22 07:46:39;;;;;;;;;;;;;;;9.24;nan;101198.66;5166415;23;19924;-70
2024/03/22 07:48:42;;;;;;;;;;;;;;;9.26;nan;101191.25;5165600;23;19928;-70
2024/03/22 07:50:43;;;;;;;;;;;;;;;9.28;nan;101188.41;5165079;23;19923;-69
2024/03/22 07:52:46;;;;;;;;;;;;;;;9.28;nan;101188.41;5165780;23;19920;-70
2024/03/22 07:54:47;;;;;;;;;;;;;;;9.28;nan;101186.56;5166583;23;19920;-70
2024/03/22 07:56:51;;;;;;;;;;;;;;;9.30;nan;101181.84;5166066;23;19923;-70
2024/03/22 07:58:52;;;;;;;;;;;;;;;9.31;nan;101188.09;5164452;23;19938;-70
2024/03/22 08:00:54;;;;;;;;;;;;;;;9.32;nan;101176.31;5165867;23;19923;-70
2024/03/22 08:02:56;;;;;;;;;;;;;;;9.32;nan;101174.44;5166344;23;19923;-70
2024/03/22 08:04:58;;;;;;;;;;;;;;;9.34;nan;101177.84;5166253;23;20126;-70
2024/03/22 08:07:00;;;;;;;;;;;;;;;9.35;nan;101178.69;5165683;23;19919;-70
2024/03/22 08:09:03;;;;;;;;;;;;;;;9.36;nan;101175.00;5166019;23;19928;-70
2024/03/22 08:11:05;;;;;;;;;;;;;;;9.36;nan;101186.63;5165446;23;20361;-70
2024/03/22 08:13:06;;;;;;;;;;;;;;;9.37;nan;101172.16;5164872;23;19923;-70
2024/03/22 08:15:09;;;;;;;;;;;;;;;9.38;nan;101176.50;5165244;23;20385;-70
2024/03/22 08:17:11;;;;;;;;;;;;;;;9.40;nan;101173.66;5165935;23;19927;-70
2024/03/22 08:19:13;;;;;;;;;;;;;;;9.40;nan;101168.25;5165768;23;19920;-70
2024/03/22 08:21:14;;;;;;;;;;;;;;;9.42;nan;101171.66;5165051;23;19920;-70
2024/03/22 08:23:20;;;;;;;;;;;;;;;9.42;nan;101160.88;5165524;23;19924;-70
2024/03/22 08:25:24;;;;;;;;;;;;;;;9.44;nan;101152.63;5166086;23;19928;-70
2024/03/22 08:27:26;;;;;;;;;;;;;;;9.45;nan;101155.19;5165425;23;19926;-70
2024/03/22 08:29:27;;;;;;;;;;;;;;;9.46;nan;101147.91;5164612;23;19923;-70
2024/03/22 08:31:29;;;;;;;;;;;;;;;9.48;nan;101159.38;5164270;23;19920;-70
2024/03/22 08:33:30;;;;;;;;;;;;;;;9.48;nan;101160.25;5165951;23;19928;-70
2024/03/22 08:35:33;;;;;;;;;;;;;;;9.50;nan;101160.94;5165611;23;20256;-70
2024/03/22 08:37:34;;;;;;;;;;;;;;;9.51;nan;101151.84;5165883;23;19919;-70
2024/03/22 08:39:36;;;;;;;;;;;;;;;9.54;nan;101150.66;5164732;23;20331;-70
2024/03/22 08:41:39;;;;;;;;;;;;;;;9.54;nan;101142.56;5165014;23;19926;-70
2024/03/22 08:43:41;;;;;;;;;;;;;;;9.56;nan;101140.53;5165582;23;19923;-70
2024/03/22 08:45:43;;;;;;;;;;;;;;;9.57;nan;101137.69;5165236;23;19924;-70
2024/03/22 08:47:45;;;;;;;;;;;;;;;9.59;nan;101129.44;5164405;23;20247;-71
2024/03/22 08:49:47;;;;;;;;;;;;;;;9.62;nan;101136.38;5164760;23;19926;-71
2024/03/22 08:51:49;;;;;;;;;;;;;;;9.63;nan;101119.19;5165059;23;19920;-70
2024/03/22 08:53:50;;;;;;;;;;;;;;;9.65;nan;101118.00;5165503;23;19924;-71
2024/03/22 08:55:52;;;;;;;;;;;;;;;9.66;nan;101108.91;5165346;23;20351;-70
2024/03/22 08:57:55;;;;;;;;;;;;;;;9.68;nan;101111.44;5165691;23;19923;-70
2024/03/22 08:59:57;;;;;;;;;;;;;;;9.68;nan;101106.91;5165635;23;19919;-71
2024/03/22 09:01:59;;;;;;;;;;;;;;;9.70;nan;101091.41;5165449;23;19924;-70
2024/03/22 09:04:01;;;;;;;;;;;;;;;9.72;nan;101093.94;5165395;23;20259;-70
2024/03/22 09:06:03;;;;;;;;;;;;;;;9.72;nan;101089.41;5165621;23;19926;-70
2024/03/22 09:08:05;;;;;;;;;;;;;;;9.74;nan;101094.63;5165474;23;19924;-70
2024/03/22 09:10:07;;;;;;;;;;;;;;;9.75;nan;101077.44;5164227;23;19933;-71
2024/03/22 09:12:09;;;;;;;;;;;;;;;9.77;nan;101082.69;5164574;23;19924;-70
2024/03/22 09:14:13;;;;;;;;;;;;;;;9.78;nan;101082.50;5165639;23;19924;-71
2024/03/22 09:16:15;;;;;;;;;;;;;;;9.79;nan;101081.47;5166079;23;19919;-71
2024/03/22 09:18:17;;;;;;;;;;;;;;;9.81;nan;101074.09;5165600;23;19923;-71
2024/03/22 09:20:19;;;;;;;;;;;;;;;9.82;nan;101066.84;5164725;23;19931;-70
2024/03/22 09:22:20;;;;;;;;;;;;;;;9.84;nan;101064.81;5165064;23;19942;-70
2024/03/22 09:24:21;;;;;;;;;;;;;;;9.85;nan;101071.91;5165682;23;19928;-70
2024/03/22 09:26:23;;;;;;;;;;;;;;;9.87;nan;101067.19;5165395;23;19935;-70
2024/03/22 09:28:26;;;;;;;;;;;;;;;9.88;nan;101076.97;5165115;23;19920;-70
2024/03/22 09:30:29;;;;;;;;;;;;;;;9.89;nan;101063.31;5165227;23;19974;-69
2024/03/22 09:32:31;;;;;;;;;;;;;;;9.91;nan;101072.09;5165338;23;20335;-68
2024/03/22 09:34:33;;;;;;;;;;;;;;;9.93;nan;101063.81;5164924;23;20361;-69
2024/03/22 09:36:35;;;;;;;;;;;;;;;9.95;nan;101059.09;5165380;23;19930;-69
2024/03/22 09:38:38;;;;;;;;;;;;;;;9.98;nan;101056.06;5165574;23;20327;-69
2024/03/22 09:40:40;;;;;;;;;;;;;;;9.99;nan;101052.38;5165301;23;19923;-71
2024/03/22 09:42:42;;;;;;;;;;;;;;;10.02;nan;101065.53;5165629;23;19923;-69
2024/03/22 09:44:44;;;;;;;;;;;;;;;10.04;nan;101058.09;5164821;23;19924;-70
2024/03/22 09:46:48;;;;;;;;;;;;;;;10.07;nan;101062.34;5165600;23;19919;-69
2024/03/22 09:48:49;;;;;;;;;;;;;;;10.08;nan;101067.56;5165396;23;19924;-70
2024/03/22 09:50:52;;;;;;;;;;;;;;;10.10;nan;101060.16;5165613;23;19925;-69
2024/03/22 09:53:18;;;;;;;;;;;;;;;10.14;nan;101063.38;5166170;23;19924;-69
2024/03/22 09:55:22;;;;;;;;;;;;;;;10.17;nan;101054.09;5166425;23;19939;-69
2024/03/22 09:57:23;;;;;;;;;;;;;;;10.20;nan;101064.53;5166097;23;19930;-71
2024/03/22 09:59:25;;;;;;;;;;;;;;;10.21;nan;101069.78;5165930;23;19934;-68
2024/03/22 10:01:27;;;;;;;;;;;;;;;10.24;nan;101049.72;5166843;23;19926;-69
2024/03/22 10:03:30;;;;;;;;;;;;;;;10.26;nan;101055.78;5167710;23;19926;-69
2024/03/22 10:59:35;;;;;;;;;;;;;;;10.77;nan;100994.34;5163199;23;19928;-69
2024/03/22 11:01:37;;;;;;;;;;;;;;;10.80;nan;100985.06;5164752;23;19942;-69
2024/03/22 11:03:41;;;;;;;;;;;;;;;10.82;nan;100985.72;5167054;23;20335;-70
2024/03/22 11:05:45;;;;;;;;;;;;;;;10.84;nan;100981.00;5166446;23;20250;-69
2024/03/22 11:07:48;;;;;;;;;;;;;;;10.87;nan;100982.50;5139033;23;20375;-69
2024/03/22 11:09:51;;;;;;;;;;;;;;;10.90;nan;100971.34;5166333;23;19930;-69
2024/03/22 11:11:54;;;;;;;;;;;;;;;10.93;nan;100973.72;5166662;23;19923;-70
2024/03/22 11:13:56;;;;;;;;;;;;;;;10.95;nan;100960.88;5166473;23;19926;-69
2024/03/22 11:15:59;;;;;;;;;;;;;;;10.95;nan;100948.19;5166101;23;19923;-70
2024/03/22 11:18:01;;;;;;;;;;;;;;;11.00;nan;100955.78;5166106;22;20651;-70
2024/03/22 11:20:03;;;;;;;;;;;;;;;11.03;nan;100957.28;5166100;23;19949;-70
2024/03/22 11:22:05;;;;;;;;;;;;;;;11.05;nan;100960.66;5165032;23;19919;-70
2024/03/22 11:24:07;;;;;;;;;;;;;;;11.07;nan;100947.81;5166286;23;20250;-69
2024/03/22 11:26:10;;;;;;;;;;;;;;;11.09;nan;100938.50;5163959;23;19930;-69
2024/03/22 11:28:12;;;;;;;;;;;;;;;11.11;nan;100938.31;5166280;22;19924;-69
2024/03/22 11:30:15;;;;;;;;;;;;;;;11.11;nan;100925.69;5166419;23;20353;-70
2024/03/22 11:32:18;;;;;;;;;;;;;;;11.14;nan;100928.03;5165871;23;19926;-69
2024/03/22 11:34:19;;;;;;;;;;;;;;;11.15;nan;100935.09;5166696;23;19923;-69
2024/03/22 11:36:22;;;;;;;;;;;;;;;11.17;nan;100930.38;5166429;23;19924;-69
2024/03/22 11:38:26;;;;;;;;;;;;;;;11.18;nan;100933.91;5165518;22;19923;-69
2024/03/22 11:40:29;;;;;;;;;;;;;;;11.19;nan;100932.91;5165421;23;19930;-69
2024/03/22 11:42:30;;;;;;;;;;;;;;;11.22;nan;100929.00;5165141;23;20365;-69
2024/03/22 11:44:33;;;;;;;;;;;;;;;11.22;nan;100924.41;5138968;23;19927;-70
2024/03/22 11:46:34;;;;;;;;;;;;;;;11.25;nan;100936.75;5166028;22;19926;-69
2024/03/22 11:48:40;;;;;;;;;;;;;;;11.25;nan;100937.56;5166054;23;19919;-70